Time;durP1;ratioP1;P1;durP2;ratioP2;P2;SDS_P1;SDS_P2;PMS_P1;PMS_P2;Temp;Humidity;BMP_temperature;BMP_pressure;BME280_temperature;BME280_humidity;BME280_pressure;Samples;Min_cycle;Max_cycle;Signal;HPM_P1;HPM_P2
2023/12/09 00:00:06;;;;;;;29.07;14.30;;;;;;;;;;5074528;28;20183;-72
2023/12/09 00:02:32;;;;;;;27.70;14.27;;;;;;;;;;5074388;28;20218;-72
2023/12/09 00:04:58;;;;;;;29.40;13.70;;;;;;;;;;5055312;28;20215;-72
2023/12/09 00:07:24;;;;;;;36.13;16.40;;;;;;;;;;5072404;28;20212;-72
2023/12/09 00:09:50;;;;;;;36.83;17.33;;;;;;;;;;5073445;28;20209;-71
2023/12/09 00:12:17;;;;;;;30.40;14.07;;;;;;;;;;5074254;28;20216;-72
2023/12/09 00:14:43;;;;;;;28.47;14.63;;;;;;;;;;5078801;28;20205;-71
2023/12/09 00:17:09;;;;;;;26.07;14.80;;;;;;;;;;5080206;28;20214;-71
2023/12/09 00:19:35;;;;;;;31.30;14.57;;;;;;;;;;5078070;28;20216;-72
2023/12/09 00:22:01;;;;;;;29.40;15.33;;;;;;;;;;5052527;28;20221;-72
2023/12/09 00:24:27;;;;;;;31.63;15.80;;;;;;;;;;5076727;28;21032;-72
2023/12/09 00:26:53;;;;;;;27.47;14.77;;;;;;;;;;5072684;28;20614;-72
2023/12/09 00:29:19;;;;;;;33.33;14.53;;;;;;;;;;5055788;28;20229;-72
2023/12/09 00:31:45;;;;;;;27.77;14.13;;;;;;;;;;5069905;28;20220;-69
2023/12/09 00:34:11;;;;;;;37.40;14.70;;;;;;;;;;5077746;28;20570;-71
2023/12/09 00:36:37;;;;;;;28.37;14.53;;;;;;;;;;5076053;28;20243;-72
2023/12/09 00:39:03;;;;;;;32.13;14.27;;;;;;;;;;5073131;28;20653;-72
2023/12/09 00:41:30;;;;;;;30.13;14.97;;;;;;;;;;5075958;28;20274;-71
2023/12/09 00:43:56;;;;;;;34.57;15.60;;;;;;;;;;5072388;28;20214;-71
2023/12/09 00:46:22;;;;;;;30.60;14.93;;;;;;;;;;5070821;28;20217;-72
2023/12/09 00:48:48;;;;;;;32.83;15.50;;;;;;;;;;5075070;28;20247;-71
2023/12/09 00:51:14;;;;;;;29.10;14.80;;;;;;;;;;5075150;28;20175;-72
2023/12/09 00:53:40;;;;;;;28.93;14.73;;;;;;;;;;5075299;28;20557;-69
2023/12/09 00:56:06;;;;;;;29.47;14.50;;;;;;;;;;5077018;28;20219;-72
2023/12/09 00:58:32;;;;;;;28.50;14.30;;;;;;;;;;5076025;28;20276;-72
2023/12/09 01:00:58;;;;;;;32.53;15.67;;;;;;;;;;5073238;28;20708;-73
2023/12/09 01:03:24;;;;;;;30.47;14.70;;;;;;;;;;5072057;28;20659;-72
2023/12/09 01:05:50;;;;;;;31.83;14.57;;;;;;;;;;5067837;28;20203;-71
2023/12/09 01:08:16;;;;;;;31.17;14.40;;;;;;;;;;5074012;28;20210;-72
2023/12/09 01:10:42;;;;;;;30.27;13.53;;;;;;;;;;5072970;28;20212;-71
2023/12/09 01:13:08;;;;;;;26.17;12.03;;;;;;;;;;5075710;28;20589;-72
2023/12/09 01:15:34;;;;;;;30.97;13.73;;;;;;;;;;5072707;28;20305;-72
2023/12/09 01:18:00;;;;;;;28.90;14.43;;;;;;;;;;5073768;28;20234;-72
2023/12/09 01:20:26;;;;;;;30.97;13.60;;;;;;;;;;5069943;28;20610;-72
2023/12/09 01:22:52;;;;;;;29.37;13.47;;;;;;;;;;5080086;28;20254;-71
2023/12/09 01:25:18;;;;;;;24.10;12.67;;;;;;;;;;5075888;28;20255;-72
2023/12/09 01:27:44;;;;;;;26.37;13.17;;;;;;;;;;5074443;28;20714;-70
2023/12/09 01:30:10;;;;;;;24.60;14.53;;;;;;;;;;5073369;28;20170;-72
2023/12/09 01:32:36;;;;;;;23.70;13.33;;;;;;;;;;5073361;28;20208;-72
2023/12/09 01:35:03;;;;;;;25.40;12.97;;;;;;;;;;5071700;28;20229;-71
2023/12/09 01:37:29;;;;;;;29.03;14.13;;;;;;;;;;5080849;28;20934;-71
2023/12/09 01:39:55;;;;;;;32.47;14.57;;;;;;;;;;5074914;28;20354;-71
2023/12/09 01:42:21;;;;;;;28.50;13.77;;;;;;;;;;5078673;28;20330;-71
2023/12/09 01:44:47;;;;;;;32.60;14.33;;;;;;;;;;5076633;28;20305;-73
2023/12/09 01:47:14;;;;;;;28.90;14.27;;;;;;;;;;5072687;28;20213;-71
2023/12/09 01:49:41;;;;;;;28.63;13.50;;;;;;;;;;5060929;28;20206;-72
2023/12/09 01:52:07;;;;;;;30.57;14.10;;;;;;;;;;5058075;28;20285;-74
2023/12/09 01:54:33;;;;;;;26.87;13.97;;;;;;;;;;5061816;28;20220;-74
2023/12/09 01:56:59;;;;;;;25.50;13.70;;;;;;;;;;5073302;28;20179;-71
2023/12/09 01:59:25;;;;;;;28.47;13.40;;;;;;;;;;5078545;28;20213;-72
2023/12/09 02:01:52;;;;;;;29.87;15.43;;;;;;;;;;5075641;28;20751;-71
2023/12/09 02:04:19;;;;;;;33.70;13.60;;;;;;;;;;5071366;28;20210;-71
2023/12/09 02:06:45;;;;;;;29.03;13.97;;;;;;;;;;5075985;28;20684;-72
2023/12/09 02:09:11;;;;;;;28.67;14.47;;;;;;;;;;5071740;28;20257;-72
2023/12/09 02:11:55;;;;;;;28.00;14.17;;;;;;;;;;5072730;28;20181;-71
2023/12/09 02:14:32;;;;;;;30.53;14.43;;;;;;;;;;5076406;28;20697;-71
2023/12/09 02:17:03;;;;;;;27.87;14.90;;;;;;;;;;5072202;28;20205;-71
2023/12/09 02:19:30;;;;;;;29.97;14.47;;;;;;;;;;5071685;28;20213;-72
2023/12/09 02:22:06;;;;;;;30.13;13.67;;;;;;;;;;5072950;28;20218;-72
2023/12/09 02:24:33;;;;;;;29.80;13.60;;;;;;;;;;5073642;28;20221;-72
2023/12/09 02:27:02;;;;;;;30.53;14.90;;;;;;;;;;5072600;28;20199;-72
2023/12/09 02:29:31;;;;;;;29.73;14.53;;;;;;;;;;5074906;28;20351;-72
2023/12/09 02:32:00;;;;;;;31.90;15.10;;;;;;;;;;5068866;28;20216;-72
2023/12/09 02:34:28;;;;;;;27.63;13.80;;;;;;;;;;5077586;28;20221;-72
2023/12/09 02:36:56;;;;;;;26.53;13.93;;;;;;;;;;5068911;28;20700;-72
2023/12/09 02:39:22;;;;;;;32.30;14.70;;;;;;;;;;5075449;28;20221;-72
2023/12/09 02:41:48;;;;;;;31.33;14.57;;;;;;;;;;5079333;28;20226;-72
2023/12/09 02:44:14;;;;;;;25.63;14.30;;;;;;;;;;5075156;28;20651;-72
2023/12/09 02:46:40;;;;;;;27.90;14.30;;;;;;;;;;5073419;28;20207;-72
2023/12/09 02:49:06;;;;;;;33.03;15.07;;;;;;;;;;5066490;28;20754;-71
2023/12/09 02:51:32;;;;;;;30.60;13.67;;;;;;;;;;5073857;28;20212;-72
2023/12/09 02:53:58;;;;;;;27.33;12.93;;;;;;;;;;5076584;28;20706;-71
2023/12/09 02:56:24;;;;;;;32.23;15.17;;;;;;;;;;5072172;28;20301;-72
2023/12/09 02:58:50;;;;;;;40.17;16.43;;;;;;;;;;5076556;28;20692;-70
2023/12/09 03:01:16;;;;;;;34.07;15.77;;;;;;;;;;5074568;28;20290;-72
2023/12/09 03:03:42;;;;;;;32.07;14.93;;;;;;;;;;5070486;28;20293;-71
2023/12/09 03:06:08;;;;;;;33.80;16.33;;;;;;;;;;5062361;28;20198;-72
2023/12/09 03:08:34;;;;;;;38.77;17.07;;;;;;;;;;5064920;28;20173;-72
2023/12/09 03:11:00;;;;;;;36.90;15.70;;;;;;;;;;5066840;28;20695;-72
2023/12/09 03:13:26;;;;;;;34.93;14.93;;;;;;;;;;5059974;28;20791;-72
2023/12/09 03:15:52;;;;;;;31.87;15.23;;;;;;;;;;5071123;28;20217;-72
2023/12/09 03:18:18;;;;;;;31.90;14.40;;;;;;;;;;5070693;28;20201;-72
2023/12/09 03:20:44;;;;;;;35.93;15.93;;;;;;;;;;5072804;28;20214;-72
2023/12/09 03:23:10;;;;;;;35.37;16.03;;;;;;;;;;5068633;28;20210;-72
2023/12/09 03:25:36;;;;;;;36.70;16.80;;;;;;;;;;5070648;28;20261;-72
2023/12/09 03:28:02;;;;;;;36.93;14.37;;;;;;;;;;5077833;28;20221;-72
2023/12/09 03:30:28;;;;;;;37.40;16.23;;;;;;;;;;5070451;28;20696;-72
2023/12/09 03:32:54;;;;;;;32.87;16.07;;;;;;;;;;5075599;28;20652;-72
2023/12/09 03:35:20;;;;;;;37.30;15.60;;;;;;;;;;5067287;28;20353;-72
2023/12/09 03:37:46;;;;;;;36.83;15.30;;;;;;;;;;5069861;28;20580;-72
2023/12/09 03:40:12;;;;;;;33.47;16.07;;;;;;;;;;5079234;28;20207;-72
2023/12/09 03:42:38;;;;;;;34.17;15.63;;;;;;;;;;5071562;28;20218;-72
2023/12/09 03:45:04;;;;;;;35.57;16.20;;;;;;;;;;5062786;28;20280;-72
2023/12/09 03:47:31;;;;;;;37.10;16.00;;;;;;;;;;5069271;28;20589;-71
2023/12/09 03:49:57;;;;;;;40.87;17.50;;;;;;;;;;5071369;28;20742;-72
2023/12/09 03:52:23;;;;;;;40.77;16.43;;;;;;;;;;5070778;28;20316;-72
2023/12/09 03:54:49;;;;;;;41.97;17.30;;;;;;;;;;5070260;28;20206;-72
2023/12/09 03:57:15;;;;;;;39.93;17.00;;;;;;;;;;5070049;28;20180;-72
2023/12/09 03:59:41;;;;;;;46.40;18.57;;;;;;;;;;5073066;28;20225;-70
2023/12/09 04:02:07;;;;;;;40.57;17.67;;;;;;;;;;5068339;28;20214;-72
2023/12/09 04:04:33;;;;;;;42.33;17.97;;;;;;;;;;5069732;28;20253;-72
2023/12/09 04:06:59;;;;;;;40.20;17.60;;;;;;;;;;5069834;28;20210;-69
2023/12/09 04:09:25;;;;;;;43.67;18.13;;;;;;;;;;5071770;28;20253;-72
2023/12/09 04:11:52;;;;;;;39.00;17.70;;;;;;;;;;5070321;28;20183;-71
2023/12/09 04:14:18;;;;;;;49.70;19.50;;;;;;;;;;5065782;28;20256;-72
2023/12/09 04:16:44;;;;;;;48.80;18.97;;;;;;;;;;5068609;28;20222;-72
2023/12/09 04:19:10;;;;;;;52.70;19.20;;;;;;;;;;5073562;28;20217;-72
2023/12/09 04:21:36;;;;;;;37.23;17.00;;;;;;;;;;5071286;28;20224;-72
2023/12/09 04:24:02;;;;;;;43.07;17.63;;;;;;;;;;5052618;28;20556;-71
2023/12/09 04:26:28;;;;;;;40.83;18.33;;;;;;;;;;5071764;28;20229;-72
2023/12/09 04:28:54;;;;;;;38.40;18.23;;;;;;;;;;5069641;28;20211;-72
2023/12/09 04:31:21;;;;;;;47.10;18.90;;;;;;;;;;5071815;28;20540;-72
2023/12/09 04:33:47;;;;;;;41.53;19.40;;;;;;;;;;5068839;28;20261;-72
2023/12/09 04:36:13;;;;;;;43.00;17.77;;;;;;;;;;5071642;28;20195;-72
2023/12/09 04:38:39;;;;;;;43.33;18.00;;;;;;;;;;5068203;28;20687;-72
2023/12/09 04:41:05;;;;;;;43.33;19.33;;;;;;;;;;5079785;28;20222;-72
2023/12/09 04:43:31;;;;;;;53.17;19.60;;;;;;;;;;5059318;28;20261;-72
2023/12/09 04:45:57;;;;;;;44.50;18.67;;;;;;;;;;5080207;28;20703;-72
2023/12/09 04:48:25;;;;;;;44.10;18.67;;;;;;;;;;5058002;28;20179;-72
2023/12/09 04:50:51;;;;;;;46.90;18.83;;;;;;;;;;5074818;28;20194;-70
2023/12/09 04:53:17;;;;;;;51.27;19.10;;;;;;;;;;5076364;28;20203;-72
2023/12/09 04:55:43;;;;;;;44.73;19.97;;;;;;;;;;5075284;28;20728;-72
2023/12/09 04:58:09;;;;;;;55.03;21.27;;;;;;;;;;5075835;28;20202;-72
2023/12/09 05:00:34;;;;;;;50.65;20.27;;;;;;;;;;5071151;28;20522;-73
2023/12/09 05:03:00;;;;;;;46.67;18.73;;;;;;;;;;5074544;28;20189;-72
2023/12/09 05:05:27;;;;;;;54.60;21.70;;;;;;;;;;5070833;28;20228;-71
2023/12/09 05:07:53;;;;;;;45.87;20.93;;;;;;;;;;5068114;28;20203;-71
2023/12/09 05:10:19;;;;;;;50.33;19.70;;;;;;;;;;5072669;28;20206;-72
2023/12/09 05:12:45;;;;;;;52.70;20.40;;;;;;;;;;5073117;28;20234;-72
2023/12/09 05:15:10;;;;;;;42.37;18.97;;;;;;;;;;5069036;28;20227;-72
2023/12/09 05:17:37;;;;;;;49.30;20.27;;;;;;;;;;5081876;28;20179;-72
2023/12/09 05:20:04;;;;;;;50.77;20.57;;;;;;;;;;5067188;28;20218;-72
2023/12/09 05:22:30;;;;;;;44.60;19.30;;;;;;;;;;5073531;28;20226;-73
2023/12/09 05:24:56;;;;;;;48.20;20.23;;;;;;;;;;5077120;28;20218;-73
2023/12/09 05:27:23;;;;;;;53.37;19.50;;;;;;;;;;5071963;28;20186;-72
2023/12/09 05:29:49;;;;;;;56.60;21.33;;;;;;;;;;5077722;28;20183;-72
2023/12/09 05:32:16;;;;;;;55.63;19.83;;;;;;;;;;5074687;28;20237;-72
2023/12/09 05:34:42;;;;;;;50.17;20.67;;;;;;;;;;5059262;28;20225;-72
2023/12/09 05:37:08;;;;;;;53.50;21.13;;;;;;;;;;5074515;28;20222;-69
2023/12/09 05:39:35;;;;;;;57.07;21.43;;;;;;;;;;5078618;28;20210;-72
2023/12/09 05:42:01;;;;;;;48.43;20.63;;;;;;;;;;5075941;28;20202;-72
2023/12/09 05:44:27;;;;;;;51.10;20.00;;;;;;;;;;5075320;28;20207;-72
2023/12/09 05:46:53;;;;;;;53.33;21.73;;;;;;;;;;5070428;28;20234;-71
2023/12/09 05:49:19;;;;;;;41.57;19.80;;;;;;;;;;5075268;28;20207;-72
2023/12/09 05:51:45;;;;;;;41.47;17.27;;;;;;;;;;5070209;28;20199;-72
2023/12/09 05:54:11;;;;;;;52.00;20.47;;;;;;;;;;5069330;28;20179;-70
2023/12/09 05:56:37;;;;;;;52.13;19.63;;;;;;;;;;5063534;28;20274;-72
2023/12/09 05:59:03;;;;;;;46.97;18.07;;;;;;;;;;5071442;28;20213;-72
2023/12/09 06:01:30;;;;;;;42.40;17.70;;;;;;;;;;5070300;28;20215;-72
2023/12/09 06:03:56;;;;;;;44.83;17.80;;;;;;;;;;5077705;28;20198;-72
2023/12/09 06:06:22;;;;;;;40.30;19.43;;;;;;;;;;5065847;28;20252;-72
2023/12/09 06:08:49;;;;;;;45.20;18.17;;;;;;;;;;5077404;28;20174;-72
2023/12/09 06:11:15;;;;;;;46.97;17.90;;;;;;;;;;5070046;28;20211;-72
2023/12/09 06:13:42;;;;;;;50.50;18.20;;;;;;;;;;5055579;28;20223;-71
2023/12/09 06:16:08;;;;;;;43.63;18.60;;;;;;;;;;5067058;28;20229;-72
2023/12/09 06:18:34;;;;;;;43.43;19.17;;;;;;;;;;5071687;28;20221;-72
2023/12/09 06:21:00;;;;;;;39.67;17.33;;;;;;;;;;5073132;28;20210;-72
2023/12/09 06:23:26;;;;;;;40.97;17.23;;;;;;;;;;5076251;28;20812;-72
2023/12/09 06:25:52;;;;;;;39.63;18.37;;;;;;;;;;5072475;28;20217;-73
2023/12/09 06:28:18;;;;;;;45.30;18.23;;;;;;;;;;5056196;28;20218;-72
2023/12/09 06:30:44;;;;;;;44.43;19.33;;;;;;;;;;5061450;28;20207;-72
2023/12/09 06:33:10;;;;;;;38.07;17.00;;;;;;;;;;5075328;28;20182;-70
2023/12/09 06:35:36;;;;;;;44.33;17.47;;;;;;;;;;5069734;28;20351;-72
2023/12/09 06:38:02;;;;;;;45.00;18.03;;;;;;;;;;5074639;28;20238;-72
2023/12/09 06:40:28;;;;;;;42.03;17.33;;;;;;;;;;5070718;28;20598;-71
2023/12/09 06:42:54;;;;;;;31.37;16.13;;;;;;;;;;5072925;28;20208;-72
2023/12/09 06:45:20;;;;;;;40.13;18.47;;;;;;;;;;5063164;28;20248;-72
2023/12/09 06:47:47;;;;;;;43.47;17.20;;;;;;;;;;5077221;28;20173;-72
2023/12/09 06:50:13;;;;;;;39.57;16.77;;;;;;;;;;5075169;28;20642;-72
2023/12/09 06:52:39;;;;;;;39.13;17.23;;;;;;;;;;5069575;28;20217;-72
2023/12/09 06:55:06;;;;;;;39.53;17.20;;;;;;;;;;5073717;28;20563;-72
2023/12/09 06:57:32;;;;;;;39.53;15.63;;;;;;;;;;5077061;28;20238;-72
2023/12/09 06:59:58;;;;;;;42.63;16.20;;;;;;;;;;5073029;28;20576;-72
2023/12/09 07:02:24;;;;;;;36.87;15.97;;;;;;;;;;5071119;28;20317;-72
2023/12/09 07:04:50;;;;;;;28.30;15.30;;;;;;;;;;5064171;28;20214;-72
2023/12/09 07:07:16;;;;;;;35.67;15.73;;;;;;;;;;5068649;28;20684;-70
2023/12/09 07:09:42;;;;;;;42.20;16.97;;;;;;;;;;5073935;28;20212;-72
2023/12/09 07:12:08;;;;;;;35.67;16.03;;;;;;;;;;5070458;28;20179;-72
2023/12/09 07:14:34;;;;;;;31.93;14.67;;;;;;;;;;5070528;28;20226;-71
2023/12/09 07:17:00;;;;;;;29.33;14.47;;;;;;;;;;5065510;28;20268;-71
2023/12/09 07:19:26;;;;;;;32.83;13.87;;;;;;;;;;5075022;28;20206;-71
2023/12/09 07:21:53;;;;;;;36.03;15.07;;;;;;;;;;5073439;28;20657;-71
2023/12/09 07:24:19;;;;;;;31.47;15.07;;;;;;;;;;5079959;28;20179;-69
2023/12/09 07:26:45;;;;;;;30.13;13.83;;;;;;;;;;5074849;28;20186;-71
2023/12/09 07:29:11;;;;;;;35.93;16.37;;;;;;;;;;5073252;28;20211;-72
2023/12/09 07:31:37;;;;;;;30.57;14.53;;;;;;;;;;5073689;28;20219;-70
2023/12/09 07:34:03;;;;;;;29.13;14.40;;;;;;;;;;5055575;28;20215;-72
2023/12/09 07:36:29;;;;;;;35.17;15.17;;;;;;;;;;5073826;28;20600;-72
2023/12/09 07:38:55;;;;;;;34.93;15.73;;;;;;;;;;5070752;28;20261;-71
2023/12/09 07:41:21;;;;;;;35.87;15.77;;;;;;;;;;5073802;28;20216;-72
2023/12/09 07:43:47;;;;;;;29.23;14.30;;;;;;;;;;5074706;28;20608;-72
2023/12/09 07:46:13;;;;;;;36.63;15.67;;;;;;;;;;5068779;28;20225;-72
2023/12/09 07:48:39;;;;;;;28.13;12.87;;;;;;;;;;5070704;28;20610;-72
2023/12/09 07:51:05;;;;;;;30.53;13.87;;;;;;;;;;5074361;28;20178;-72
2023/12/09 07:53:31;;;;;;;24.97;12.77;;;;;;;;;;5056200;28;20769;-72
2023/12/09 07:55:57;;;;;;;33.67;14.67;;;;;;;;;;5075418;28;20294;-72
2023/12/09 07:58:24;;;;;;;30.30;14.33;;;;;;;;;;5070531;28;20207;-72
2023/12/09 08:00:50;;;;;;;28.37;14.53;;;;;;;;;;5078474;28;20699;-72
2023/12/09 08:03:16;;;;;;;28.43;12.93;;;;;;;;;;5073443;28;20206;-73
2023/12/09 08:05:42;;;;;;;27.07;13.63;;;;;;;;;;5057913;28;20559;-72
2023/12/09 08:08:09;;;;;;;26.57;12.83;;;;;;;;;;5052540;28;20213;-72
2023/12/09 08:10:35;;;;;;;30.93;15.13;;;;;;;;;;5067743;28;20720;-72
2023/12/09 08:13:03;;;;;;;30.33;14.17;;;;;;;;;;5078443;28;20240;-73
2023/12/09 08:15:29;;;;;;;28.20;13.67;;;;;;;;;;5069740;28;20297;-72
2023/12/09 08:17:55;;;;;;;26.87;12.80;;;;;;;;;;5073498;28;20250;-72
2023/12/09 08:20:21;;;;;;;29.37;13.13;;;;;;;;;;5073292;28;20205;-71
2023/12/09 08:22:47;;;;;;;22.23;12.00;;;;;;;;;;5060174;28;20257;-71
2023/12/09 08:25:13;;;;;;;21.17;12.23;;;;;;;;;;5076171;28;20731;-71
2023/12/09 08:27:39;;;;;;;24.33;11.60;;;;;;;;;;5047069;28;20210;-72
2023/12/09 08:30:10;;;;;;;27.03;13.17;;;;;;;;;;5074340;28;20190;-71
2023/12/09 08:32:37;;;;;;;23.07;12.03;;;;;;;;;;5074923;28;20210;-72
2023/12/09 08:35:03;;;;;;;21.97;11.70;;;;;;;;;;5077140;28;20212;-71
2023/12/09 08:37:30;;;;;;;22.67;11.80;;;;;;;;;;5066073;28;20207;-72
2023/12/09 08:39:56;;;;;;;21.60;11.67;;;;;;;;;;5076749;28;20256;-72
2023/12/09 08:42:22;;;;;;;20.30;11.87;;;;;;;;;;5080066;28;20616;-71
2023/12/09 08:44:48;;;;;;;21.77;11.20;;;;;;;;;;5070364;28;20211;-71
2023/12/09 08:47:15;;;;;;;23.90;11.40;;;;;;;;;;5078606;28;20207;-71
2023/12/09 08:49:43;;;;;;;20.17;10.73;;;;;;;;;;5072900;28;20220;-71
2023/12/09 08:52:09;;;;;;;24.47;11.73;;;;;;;;;;5077610;28;20199;-72
2023/12/09 08:54:35;;;;;;;24.30;10.90;;;;;;;;;;5054290;28;20221;-73
2023/12/09 08:57:01;;;;;;;22.37;11.57;;;;;;;;;;5070957;28;20175;-74
2023/12/09 08:59:27;;;;;;;24.63;11.40;;;;;;;;;;5071061;28;20210;-72
2023/12/09 09:01:53;;;;;;;19.73;10.67;;;;;;;;;;5070986;28;20202;-74
2023/12/09 09:04:20;;;;;;;20.23;10.23;;;;;;;;;;5077383;28;20218;-74
2023/12/09 09:06:46;;;;;;;21.97;11.27;;;;;;;;;;5058589;28;20677;-75
2023/12/09 09:09:12;;;;;;;24.20;11.93;;;;;;;;;;5074187;28;20231;-75
2023/12/09 09:11:38;;;;;;;20.27;11.50;;;;;;;;;;5078851;28;20241;-74
2023/12/09 09:14:04;;;;;;;22.67;10.77;;;;;;;;;;5074370;28;20222;-75
2023/12/09 09:16:30;;;;;;;23.33;11.53;;;;;;;;;;5072034;28;20214;-74
2023/12/09 09:18:57;;;;;;;22.23;11.07;;;;;;;;;;5076958;28;20299;-76
2023/12/09 09:21:23;;;;;;;20.63;11.53;;;;;;;;;;5077409;28;20203;-75
2023/12/09 09:23:49;;;;;;;22.90;11.00;;;;;;;;;;5077903;28;20191;-74
2023/12/09 09:26:15;;;;;;;21.07;10.20;;;;;;;;;;5076814;28;20211;-75
2023/12/09 09:28:43;;;;;;;25.83;10.90;;;;;;;;;;5055887;28;20723;-77
2023/12/09 09:31:10;;;;;;;20.97;11.23;;;;;;;;;;5071463;28;20245;-73
2023/12/09 09:33:37;;;;;;;22.77;10.80;;;;;;;;;;5071882;28;20230;-74
2023/12/09 09:36:03;;;;;;;22.40;11.23;;;;;;;;;;5069293;28;20195;-74
2023/12/09 09:38:29;;;;;;;27.57;10.83;;;;;;;;;;5073255;28;20203;-75
2023/12/09 09:40:56;;;;;;;20.33;10.53;;;;;;;;;;5059591;28;20595;-77
2023/12/09 09:43:23;;;;;;;23.53;11.90;;;;;;;;;;5076740;28;20298;-76
2023/12/09 09:45:53;;;;;;;22.10;12.03;;;;;;;;;;5075430;28;20211;-76
2023/12/09 09:48:23;;;;;;;22.80;11.83;;;;;;;;;;5074038;28;20171;-76
2023/12/09 09:50:52;;;;;;;21.53;11.90;;;;;;;;;;5055300;28;20183;-73
2023/12/09 09:53:27;;;;;;;19.67;10.83;;;;;;;;;;5082339;28;20264;-74
2023/12/09 09:55:54;;;;;;;23.53;10.60;;;;;;;;;;5075203;28;20233;-73
2023/12/09 09:58:20;;;;;;;20.23;10.77;;;;;;;;;;5058011;28;20854;-73
2023/12/09 10:00:46;;;;;;;20.80;11.27;;;;;;;;;;5080175;28;20218;-74
2023/12/09 10:03:12;;;;;;;20.97;11.17;;;;;;;;;;5074430;28;20183;-73
2023/12/09 10:05:38;;;;;;;21.43;10.47;;;;;;;;;;5070415;28;20195;-75
2023/12/09 10:08:05;;;;;;;20.27;10.43;;;;;;;;;;5073576;28;20199;-75
2023/12/09 10:10:33;;;;;;;20.90;11.13;;;;;;;;;;5073445;28;20207;-76
2023/12/09 10:12:59;;;;;;;22.60;10.50;;;;;;;;;;5074173;28;20273;-75
2023/12/09 10:15:25;;;;;;;19.40;9.47;;;;;;;;;;5070041;28;20705;-75
2023/12/09 10:17:51;;;;;;;19.90;10.83;;;;;;;;;;5079329;28;20178;-74
2023/12/09 10:20:17;;;;;;;23.97;11.27;;;;;;;;;;5076009;28;20706;-76
2023/12/09 10:22:46;;;;;;;23.53;11.43;;;;;;;;;;5071566;28;20780;-74
2023/12/09 10:25:21;;;;;;;22.27;11.10;;;;;;;;;;5075668;28;20302;-75
2023/12/09 10:27:47;;;;;;;18.73;10.33;;;;;;;;;;5066940;28;20209;-74
2023/12/09 10:30:13;;;;;;;19.53;11.07;;;;;;;;;;5075577;28;20596;-76
2023/12/09 10:32:39;;;;;;;20.47;10.50;;;;;;;;;;5061383;28;20200;-74
2023/12/09 10:35:05;;;;;;;19.43;10.20;;;;;;;;;;5071892;28;20218;-75
2023/12/09 10:37:31;;;;;;;19.57;10.33;;;;;;;;;;5075784;28;20901;-75
2023/12/09 10:39:57;;;;;;;19.23;9.50;;;;;;;;;;5072234;28;20572;-74
2023/12/09 10:42:24;;;;;;;18.97;9.53;;;;;;;;;;5066514;28;20206;-75
2023/12/09 10:44:50;;;;;;;19.77;9.17;;;;;;;;;;5072957;28;20218;-75
2023/12/09 10:47:16;;;;;;;20.40;8.93;;;;;;;;;;5074433;28;20237;-75
2023/12/09 10:49:42;;;;;;;17.57;9.73;;;;;;;;;;5075530;28;20207;-76
2023/12/09 10:52:08;;;;;;;15.73;8.43;;;;;;;;;;5076636;28;20887;-75
2023/12/09 10:54:34;;;;;;;18.27;8.83;;;;;;;;;;5070316;28;20241;-75
2023/12/09 10:57:01;;;;;;;14.10;8.27;;;;;;;;;;5071512;28;20176;-75
2023/12/09 10:59:29;;;;;;;20.60;9.53;;;;;;;;;;5073922;28;20202;-75
2023/12/09 11:01:55;;;;;;;20.87;10.47;;;;;;;;;;5053494;28;20207;-74
2023/12/09 11:04:21;;;;;;;18.00;9.37;;;;;;;;;;5069701;28;20210;-75
2023/12/09 11:06:50;;;;;;;18.50;9.17;;;;;;;;;;5065077;28;20679;-74
2023/12/09 11:09:16;;;;;;;17.13;9.03;;;;;;;;;;5054680;28;20175;-75
2023/12/09 11:11:42;;;;;;;20.00;9.93;;;;;;;;;;5059505;28;20198;-75
2023/12/09 11:14:11;;;;;;;17.93;9.37;;;;;;;;;;5073211;28;20231;-75
2023/12/09 11:16:42;;;;;;;18.47;9.30;;;;;;;;;;5074388;28;20212;-75
2023/12/09 11:19:13;;;;;;;17.30;8.47;;;;;;;;;;5067283;28;20321;-75
2023/12/09 11:21:42;;;;;;;19.20;10.07;;;;;;;;;;5070576;28;20218;-75
2023/12/09 11:24:09;;;;;;;21.33;8.37;;;;;;;;;;5057308;28;20182;-75
2023/12/09 11:26:36;;;;;;;16.07;8.20;;;;;;;;;;5071816;28;20170;-75
2023/12/09 11:29:06;;;;;;;20.40;9.00;;;;;;;;;;5069020;28;20256;-75
2023/12/09 11:31:38;;;;;;;16.27;8.40;;;;;;;;;;5074542;28;20284;-75
2023/12/09 11:34:05;;;;;;;14.83;7.97;;;;;;;;;;5071199;28;20198;-75
2023/12/09 11:36:35;;;;;;;17.57;7.70;;;;;;;;;;5074961;28;20283;-75
2023/12/09 11:39:02;;;;;;;20.57;8.30;;;;;;;;;;5073781;28;20170;-75
2023/12/09 11:41:28;;;;;;;17.23;8.13;;;;;;;;;;5073930;28;20255;-75
2023/12/09 11:43:55;;;;;;;14.67;7.70;;;;;;;;;;5071620;28;20194;-77
2023/12/09 11:46:22;;;;;;;15.67;7.70;;;;;;;;;;5068413;28;20210;-76
2023/12/09 11:48:50;;;;;;;14.83;7.13;;;;;;;;;;5066915;28;20207;-74
2023/12/09 11:51:18;;;;;;;12.83;6.90;;;;;;;;;;5067365;28;20635;-75
2023/12/09 11:53:57;;;;;;;12.80;6.30;;;;;;;;;;5066303;28;20270;-73
2023/12/09 11:56:23;;;;;;;14.20;8.43;;;;;;;;;;5077747;28;20205;-75
2023/12/09 11:58:50;;;;;;;12.47;6.50;;;;;;;;;;5065719;28;20628;-76
2023/12/09 12:01:16;;;;;;;13.87;7.00;;;;;;;;;;5066782;28;20214;-75
2023/12/09 12:03:42;;;;;;;11.37;6.33;;;;;;;;;;5083251;28;20225;-76
2023/12/09 12:06:09;;;;;;;12.57;6.43;;;;;;;;;;5067081;28;20195;-75
2023/12/09 12:08:35;;;;;;;11.33;6.00;;;;;;;;;;5072126;28;20167;-75
2023/12/09 12:11:03;;;;;;;10.93;6.50;;;;;;;;;;5067635;28;20575;-75
2023/12/09 12:13:29;;;;;;;11.03;6.37;;;;;;;;;;5069382;28;20260;-75
2023/12/09 12:15:55;;;;;;;10.97;6.50;;;;;;;;;;5066517;28;20218;-72
2023/12/09 12:18:23;;;;;;;10.80;5.80;;;;;;;;;;5070131;28;20283;-75
2023/12/09 12:20:49;;;;;;;10.70;6.13;;;;;;;;;;5054652;28;20556;-73
2023/12/09 12:23:16;;;;;;;7.73;4.87;;;;;;;;;;5069418;28;20209;-74
2023/12/09 12:25:42;;;;;;;11.23;6.30;;;;;;;;;;5069053;28;20225;-76
2023/12/09 12:28:08;;;;;;;9.57;5.00;;;;;;;;;;5069949;28;20210;-75
2023/12/09 12:30:34;;;;;;;11.80;6.23;;;;;;;;;;5066425;28;20258;-75
2023/12/09 12:33:00;;;;;;;10.40;6.27;;;;;;;;;;5069373;28;20844;-76
2023/12/09 12:35:26;;;;;;;9.70;5.20;;;;;;;;;;5072031;28;20206;-75
2023/12/09 12:37:52;;;;;;;12.07;5.47;;;;;;;;;;5068021;28;20775;-75
2023/12/09 12:40:21;;;;;;;10.13;5.57;;;;;;;;;;5071789;28;20211;-76
2023/12/09 12:42:47;;;;;;;12.97;5.20;;;;;;;;;;5064843;28;20276;-74
2023/12/09 12:45:20;;;;;;;10.63;5.27;;;;;;;;;;5067725;28;20718;-76
2023/12/09 12:47:46;;;;;;;10.13;5.17;;;;;;;;;;5068754;28;20175;-75
2023/12/09 12:50:12;;;;;;;12.68;7.60;;;;;;;;;;5068887;28;20450;-75
2023/12/09 12:52:39;;;;;;;9.40;6.17;;;;;;;;;;5068686;28;20206;-76
2023/12/09 12:55:06;;;;;;;9.17;5.17;;;;;;;;;;5052600;28;20276;-76
2023/12/09 12:57:32;;;;;;;12.20;6.13;;;;;;;;;;5070506;28;20209;-74
2023/12/09 12:59:58;;;;;;;9.40;5.80;;;;;;;;;;5070739;28;20220;-76
2023/12/09 13:02:24;;;;;;;12.33;6.03;;;;;;;;;;5073080;28;20219;-73
2023/12/09 13:04:50;;;;;;;9.00;5.30;;;;;;;;;;5072894;28;20213;-74
2023/12/09 13:07:16;;;;;;;13.10;5.43;;;;;;;;;;5070791;28;20195;-76
2023/12/09 13:09:43;;;;;;;9.77;5.47;;;;;;;;;;5070428;28;20231;-76
2023/12/09 13:12:09;;;;;;;9.70;5.47;;;;;;;;;;5074181;28;20171;-75
2023/12/09 13:14:35;;;;;;;10.43;4.87;;;;;;;;;;5052090;28;20222;-74
2023/12/09 13:17:04;;;;;;;8.97;4.67;;;;;;;;;;5052914;28;20206;-76
2023/12/09 13:19:31;;;;;;;9.07;5.23;;;;;;;;;;5073743;28;20232;-74
2023/12/09 13:21:57;;;;;;;9.40;4.67;;;;;;;;;;5074202;28;20696;-74
2023/12/09 13:24:23;;;;;;;8.40;5.23;;;;;;;;;;5070076;28;20232;-74
2023/12/09 13:26:49;;;;;;;9.33;4.83;;;;;;;;;;5071867;28;20584;-73
2023/12/09 13:29:15;;;;;;;13.93;5.50;;;;;;;;;;5055185;28;20207;-73
2023/12/09 13:31:41;;;;;;;12.47;5.80;;;;;;;;;;5071785;28;20750;-74
2023/12/09 13:34:07;;;;;;;9.57;5.30;;;;;;;;;;5072502;28;20198;-73
2023/12/09 13:36:34;;;;;;;8.43;5.10;;;;;;;;;;5072284;28;20211;-74
2023/12/09 13:39:00;;;;;;;10.10;5.10;;;;;;;;;;5073453;28;20167;-73
2023/12/09 13:41:30;;;;;;;7.90;4.67;;;;;;;;;;5069416;28;20203;-74
2023/12/09 13:43:56;;;;;;;9.17;4.87;;;;;;;;;;5070575;28;20207;-72
2023/12/09 13:46:22;;;;;;;9.23;4.67;;;;;;;;;;5067847;28;20258;-74
2023/12/09 13:48:48;;;;;;;8.60;4.60;;;;;;;;;;5050150;28;20202;-74
2023/12/09 13:51:14;;;;;;;8.20;4.37;;;;;;;;;;5070842;28;20175;-75
2023/12/09 13:53:40;;;;;;;9.23;5.00;;;;;;;;;;5071457;28;20171;-75
2023/12/09 13:56:07;;;;;;;8.43;4.87;;;;;;;;;;5067239;28;20576;-74
2023/12/09 13:58:33;;;;;;;9.37;4.40;;;;;;;;;;5071450;28;20210;-75
2023/12/09 14:00:59;;;;;;;10.43;4.83;;;;;;;;;;5067576;28;20203;-74
2023/12/09 14:03:25;;;;;;;8.77;4.20;;;;;;;;;;5069076;28;20201;-75
2023/12/09 14:05:51;;;;;;;8.30;4.60;;;;;;;;;;5072079;28;20653;-73
2023/12/09 14:08:17;;;;;;;7.23;4.27;;;;;;;;;;5068859;28;20688;-76
2023/12/09 14:10:43;;;;;;;8.20;4.70;;;;;;;;;;5050830;28;20210;-75
2023/12/09 14:13:10;;;;;;;11.33;4.63;;;;;;;;;;5051514;28;20199;-74
2023/12/09 14:15:36;;;;;;;5.93;4.00;;;;;;;;;;5069271;28;20291;-76